23 maggio 2022

Tempo Codice Tempo metereologico Temp. Vista Nuvole Vento METAR/SPECI
10:30
L
15 °C 7 km 400 ft 220°   220° 13 kt METAR LFBL 230830Z AUTO 22013KT 7000 -RA OVC004/// //////TCU 15/15 Q1007 TEMPO 4000 -SHRA
10:00
L
15 °C 8 km 400 ft 210°   210° 14 kt METAR LFBL 230800Z AUTO 21014KT 8000 OVC004/// //////TCU 15/15 Q1007 TEMPO BKN008 BKN025TCU
09:30
L
15 °C 4,6 km 400 ft 210°   210° 15 kt METAR LFBL 230730Z AUTO 21015KT 4600 -RADZ BR OVC004/// //////TCU 15/14 Q1007 TEMPO BKN008 BKN025TCU BECMG 9999 NSW
09:00
I
15 °C 10 km+ 700 ft 200°   200° 17 kt METAR LFBL 230700Z AUTO 20017KT 9999 OVC007 15/14 Q1007 TEMPO TSRA BKN008 BKN025TCU
08:30
I
15 °C 10 km+ 700 ft 210°   210° 13 kt METAR LFBL 230630Z AUTO 21013KT 9999 OVC007 15/15 Q1007 TEMPO TSRA BKN008 BKN025TCU
08:00
I
16 °C 10 km+ 800 ft 190°   190° 8 kt METAR LFBL 230600Z AUTO 19008KT 9999 BKN008 BKN082 16/15 Q1007 TEMPO TSRA BKN007 SCT035CB
07:30
V
15 °C 10 km+ 3.400 ft 170°   170° 10 kt METAR LFBL 230530Z AUTO 17010KT 9999 SCT008/// BKN034/// BKN068/// //////TCU 15/15 Q1007 TEMPO 4000 SHRA BKN005 SCT060CB
07:00
M
16 °C 10 km+ 1.100 ft 190°   190° 11 kt METAR LFBL 230500Z AUTO 19011KT 9999 -RA BKN011/// OVC086/// ///CB 16/15 Q1007 TEMPO 4000 SHRA BKN005 SCT060CB
06:30
M
16 °C 10 km+ 1.200 ft 200°   200° 12 kt METAR LFBL 230430Z AUTO 20012KT 9999 OVC012/// ///CB 16/14 Q1008 TEMPO 4000 SHRA BKN005 SCT060CB
06:00
M
16 °C 10 km+ 1.400 ft 220°   220° 12 kt METAR LFBL 230400Z AUTO 22012KT 9999 OVC014 16/14 Q1008 TEMPO 4000 SHRA BKN005 SCT060CB
05:30
M
17 °C 10 km+ 2.100 ft 200°   200° 9 kt METAR LFBL 230330Z AUTO 20009KT 150V220 9999 BKN021 BKN026 OVC072 17/14 Q1008 TEMPO 4000 SHRA BKN005 SCT060CB
05:00
V
16 °C 10 km+ - 150°   150° 5 kt METAR LFBL 230300Z AUTO 15005KT 120V180 CAVOK 16/14 Q1007 TEMPO 4000 SHRA BKN005 SCT060CB
04:30
V
17 °C 10 km+ 21.000 ft 220°   220° 6 kt METAR LFBL 230230Z AUTO 22006KT 190V270 9999 FEW015 SCT110 BKN210 17/14 Q1007 TEMPO 4000 SHRA BKN005 SCT060CB
04:00
M
17 °C 10 km+ 1.500 ft 230°   230° 12 kt METAR LFBL 230200Z AUTO 23012KT 200V260 9999 BKN015 BKN021 17/14 Q1008 TEMPO 4000 SHRA BKN005 SCT060CB
03:30
V
17 °C 10 km+ - 230°   230° 9 kt METAR LFBL 230130Z AUTO 23009KT 200V260 CAVOK 17/15 Q1008 TEMPO 4000 SHRA BKN005 SCT060CB
03:00
V
18 °C 10 km+ - 240°   240° 5 kt METAR LFBL 230100Z AUTO 24005KT 210V280 CAVOK 18/16 Q1007 TEMPO 4000 SHRA BKN005 SCT060CB
02:30
V
18 °C 10 km+ - 240°   240° 6 kt METAR LFBL 230030Z AUTO 24006KT 9999 FEW010 SCT180 18/16 Q1007 TEMPO 4000 SHRA BKN005 SCT060CB
02:00
M
19 °C 10 km+ 1.100 ft 250°   250° 12 kt METAR LFBL 230000Z AUTO 25012KT 230V300 9999 BKN011/// BKN130/// ///TCU 19/17 Q1008 TEMPO 4000 SHRA BKN005 SCT060CB
01:30
V
20 °C 10 km+ - 240°   240° 14 kt METAR LFBL 222330Z AUTO 24014KT 210V290 9999 //////CB 20/17 Q1008 TEMPO 4000 SHRA BECMG BKN005
01:00
V
21 °C 10 km+ - 270°   270° 7 kt METAR LFBL 222300Z AUTO 27007KT 230V290 9999 FEW036 21/19 Q1007 TEMPO VRB15G25KT 4000 SHRA SCT060CB
00:30
V
22 °C 10 km+ - 230°   230° 5 kt METAR LFBL 222230Z AUTO 23005KT 9999 FEW036 22/18 Q1007 TEMPO VRB15G25KT 4000 SHRA SCT060CB
00:00
V
23 °C 10 km+ - Var   Var 3 kt METAR LFBL 222200Z AUTO VRB03KT 9999 //////TCU 23/18 Q1007 TEMPO VRB15G25KT 4000 TSRA SCT060CB

22 maggio 2022

Tempo Codice Tempo metereologico Temp. Vista Nuvole Vento METAR/SPECI
23:30
V
23 °C 10 km+ - 290°   290° 3 kt METAR LFBL 222130Z AUTO 29003KT 9999 VCTS ///CB 23/18 Q1007 TEMPO VRB15G25KT 4000 TSRA
23:00
V
23 °C 10 km+ 14.000 ft 240°   240° 4 kt METAR LFBL 222100Z AUTO 24004KT 210V270 9999 FEW043/// BKN140/// BKN170/// //////CB 23/17 Q1007 TEMPO 22030G45KT 1500 TSRAGR
22:30
V
25 °C 10 km+ 12.000 ft 240°   240° 5 kt METAR LFBL 222030Z AUTO 24005KT 190V290 9999 TS FEW045/// OVC120/// ///CB 25/19 Q1008 TEMPO 22030G45KT 1500 TSRAGR
22:00
V
25 °C 10 km+ - Var   Var 3 kt METAR LFBL 222000Z AUTO VRB03KT 9999 VCTS ///CB 25/20 Q1007 TEMPO 22030G45KT 1500 TSRAGR
21:30
V
25 °C 10 km+ - Var   Var 3 kt METAR LFBL 221930Z AUTO VRB03KT CAVOK 25/20 Q1007 TEMPO 22030G45KT 1500 TSRAGR BKN030CB
21:00
V
26 °C 10 km+ - Var   Var 3 kt METAR LFBL 221900Z AUTO VRB03KT CAVOK 26/19 Q1007 TEMPO 22030G45KT 1500 TSRAGR BKN030CB
20:30
V
26 °C 10 km+ - 220°   220° 5 kt METAR LFBL 221830Z AUTO 22005KT 200V260 CAVOK 26/19 Q1007 TEMPO 22030G45KT 1500 TSRAGR BKN030CB
20:00
V
26 °C 10 km+ - 210°   210° 7 kt METAR LFBL 221800Z AUTO 21007KT CAVOK 26/20 Q1007 TEMPO 22030G45KT 1500 TSRAGR BKN030CB
19:30
V
28 °C 10 km+ - Var   Var 2 kt METAR LFBL 221730Z AUTO VRB02KT CAVOK 28/19 Q1007 TEMPO 22030G45KT 1500 TSRAGR BKN030CB
19:00
V
27 °C 10 km+ - 200°   200° 6 kt METAR LFBL 221700Z AUTO 20006KT CAVOK 27/19 Q1008 TEMPO 22030G45KT 1500 TSRAGR BKN030CB
18:30
V
28 °C 10 km+ - 140°   140° 5 kt METAR LFBL 221630Z AUTO 14005KT 080V200 CAVOK 28/18 Q1008 TEMPO 22030G45KT 1500 TSRAGR BKN030CB
18:00
V
29 °C 10 km+ - 170°   170° 4 kt METAR LFBL 221600Z AUTO 17004KT 130V190 CAVOK 29/18 Q1008 TEMPO VRB15G25KT 4000 TSRA SCT060CB
17:30
V
29 °C 10 km+ - 160°   160° 6 kt METAR LFBL 221530Z AUTO 16006KT 110V200 CAVOK 29/19 Q1008 TEMPO VRB15G25KT 4000 TSRA SCT060CB
17:00
V
29 °C 10 km+ - 170°   170° 6 kt METAR LFBL 221500Z AUTO 17006KT 140V210 CAVOK 29/19 Q1009 TEMPO VRB15G25KT 4000 TSRA SCT060CB
16:30
V
29 °C 10 km+ - 180°   180° 7 kt METAR LFBL 221430Z AUTO 18007KT CAVOK 29/19 Q1009 TEMPO VRB15G25KT 4000 TSRA SCT060CB
16:00
V
29 °C 10 km+ - 190°   190° 8 kt METAR LFBL 221400Z AUTO 19008KT CAVOK 29/20 Q1010 TEMPO FEW050TCU
15:30
V
28 °C 10 km+ - 160°   160° 6 kt METAR LFBL 221330Z AUTO 16006KT 120V210 9999 //////TCU 28/20 Q1010 NOSIG
15:00
V
28 °C 10 km+ - 160°   160° 6 kt METAR LFBL 221300Z AUTO 16006KT CAVOK 28/19 Q1010 TEMPO FEW050TCU
14:30
V
27 °C 10 km+ - 170°   170° 6 kt METAR LFBL 221230Z AUTO 17006KT 130V210 CAVOK 27/19 Q1011 TEMPO FEW050TCU
14:00
V
28 °C 10 km+ - 180°   180° 6 kt METAR LFBL 221200Z AUTO 18006KT 150V220 9999 ///TCU 28/19 Q1011 BECMG NSC
13:30
V
26 °C 10 km+ 13.000 ft 200°   200° 6 kt METAR LFBL 221130Z AUTO 20006KT 160V260 9999 FEW008 BKN130 26/19 Q1011 NOSIG
13:00
V
26 °C 10 km+ - 150°   150° 6 kt METAR LFBL 221100Z AUTO 15006KT 100V210 9999 ///TCU 26/19 Q1011 BECMG NSC
12:30
V
25 °C 10 km+ - 110°   110° 11 kt METAR LFBL 221030Z AUTO 11011KT 080V140 CAVOK 25/18 Q1011 BECMG 26006KT
12:00
V
24 °C 10 km+ - 110°   110° 11 kt METAR LFBL 221000Z AUTO 11011KT CAVOK 24/18 Q1011 BECMG 26006KT
11:30
V
22 °C 10 km+ - 080°   080° 12 kt METAR LFBL 220930Z AUTO 08012KT 9999 ///TCU 22/18 Q1011 BECMG 26006KT NSC
11:00
V
23 °C 10 km+ - 100°   100° 9 kt METAR LFBL 220900Z AUTO 10009KT 9999 ///TCU 23/18 Q1012 TEMPO VRB15G25KT BECMG NSC
10:30
V
23 °C 10 km+ - 050°   050° 5 kt METAR LFBL 220830Z AUTO 05005KT 020V080 9999 ///TCU 23/18 Q1013 TEMPO VRB15G25KT BECMG NSC
10:00
V
22 °C 10 km+ - 300°   300° 3 kt METAR LFBL 220800Z AUTO 30003KT 240V330 CAVOK 22/18 Q1014 TEMPO VRB15G25KT SCT100TCU
09:30
V
21 °C 10 km+ - 060°   060° 5 kt METAR LFBL 220730Z AUTO 06005KT CAVOK 21/18 Q1013 TEMPO VRB15G25KT SCT100TCU
09:00
V
20 °C 10 km+ - 030°   030° 4 kt METAR LFBL 220700Z AUTO 03004KT CAVOK 20/17 Q1013 TEMPO VRB15G25KT SCT100TCU
08:30
V
20 °C 10 km+ - Var   Var 2 kt METAR LFBL 220630Z AUTO VRB02KT CAVOK 20/17 Q1014 TEMPO VRB15G25KT SCT100TCU
08:00
V
20 °C 10 km+ - 050°   050° 2 kt METAR LFBL 220600Z AUTO 05002KT CAVOK 20/17 Q1014 TEMPO VRB15G25KT SCT100TCU
07:30
V
19 °C 10 km+ - 030°   030° 3 kt METAR LFBL 220530Z AUTO 03003KT CAVOK 19/16 Q1014 NOSIG
07:00
V
19 °C 10 km+ - Var   Var 3 kt METAR LFBL 220500Z AUTO VRB03KT CAVOK 19/16 Q1014 NOSIG
06:30
V
19 °C 10 km+ - 050°   050° 3 kt METAR LFBL 220430Z AUTO 05003KT CAVOK 19/16 Q1014 NOSIG
06:00
V
19 °C 10 km+ - 050°   050° 3 kt METAR LFBL 220400Z AUTO 05003KT CAVOK 19/16 Q1014 NOSIG
05:30
V
19 °C 10 km+ - 060°   060° 3 kt METAR LFBL 220330Z AUTO 06003KT CAVOK 19/16 Q1014 NOSIG
05:00
V
20 °C 10 km+ - 080°   080° 3 kt METAR LFBL 220300Z AUTO 08003KT CAVOK 20/16 Q1014 NOSIG
04:30
V
20 °C 10 km+ - 050°   050° 3 kt METAR LFBL 220230Z AUTO 05003KT CAVOK 20/16 Q1014 NOSIG
04:00
V
20 °C 10 km+ - 050°   050° 4 kt METAR LFBL 220200Z AUTO 05004KT CAVOK 20/16 Q1014 NOSIG
03:30
V
20 °C 10 km+ - 050°   050° 4 kt METAR LFBL 220130Z AUTO 05004KT CAVOK 20/16 Q1014 NOSIG
03:00
V
21 °C 10 km+ - 040°   040° 5 kt METAR LFBL 220100Z AUTO 04005KT CAVOK 21/16 Q1015 NOSIG
02:30
V
21 °C 10 km+ - 050°   050° 4 kt METAR LFBL 220030Z AUTO 05004KT CAVOK 21/16 Q1015 NOSIG
02:00
V
21 °C 10 km+ - 060°   060° 6 kt METAR LFBL 220000Z AUTO 06006KT CAVOK 21/16 Q1015 NOSIG
01:30
V
21 °C 10 km+ - 060°   060° 6 kt METAR LFBL 212330Z AUTO 06006KT CAVOK 21/16 Q1015 NOSIG
01:00
V
22 °C 10 km+ - 050°   050° 5 kt METAR LFBL 212300Z AUTO 05005KT CAVOK 22/17 Q1015 NOSIG
00:30
V
22 °C 10 km+ - 010°   010° 8 kt METAR LFBL 212230Z AUTO 01008KT 340V040 CAVOK 22/17 Q1016 NOSIG
00:00
V
22 °C 10 km+ - 360°   360° 8 kt METAR LFBL 212200Z AUTO 36008KT CAVOK 22/17 Q1017 NOSIG

21 maggio 2022

Tempo Codice Tempo metereologico Temp. Vista Nuvole Vento METAR/SPECI
23:30
V
23 °C 10 km+ - 360°   360° 8 kt METAR LFBL 212130Z AUTO 36008KT 330V030 CAVOK 23/17 Q1017 NOSIG
23:00
V
23 °C 10 km+ - 350°   350° 8 kt METAR LFBL 212100Z AUTO 35008KT 320V020 CAVOK 23/18 Q1017 NOSIG
22:30
V
24 °C 10 km+ - 350°   350° 6 kt METAR LFBL 212030Z AUTO 35006KT 310V040 CAVOK 24/18 Q1017 NOSIG
22:00
V
24 °C 10 km+ - 010°   010° 6 kt METAR LFBL 212000Z AUTO 01006KT 340V040 CAVOK 24/18 Q1016 NOSIG
21:30
V
25 °C 10 km+ - 010°   010° 6 kt METAR LFBL 211930Z AUTO 01006KT CAVOK 25/18 Q1017 NOSIG
21:00
V
25 °C 10 km+ - 010°   010° 6 kt METAR LFBL 211900Z AUTO 01006KT CAVOK 25/18 Q1017 NOSIG
20:30
V
26 °C 10 km+ - 340°   340° 6 kt METAR LFBL 211830Z AUTO 34006KT 320V030 CAVOK 26/18 Q1017 NOSIG
20:00
V
27 °C 10 km+ - 360°   360° 3 kt METAR LFBL 211800Z AUTO 36003KT 310V050 CAVOK 27/18 Q1017 NOSIG
19:30
V
27 °C 10 km+ - 340°   340° 4 kt METAR LFBL 211730Z AUTO 34004KT 320V020 CAVOK 27/18 Q1017 NOSIG
19:00
V
28 °C 10 km+ - 030°   030° 3 kt METAR LFBL 211700Z AUTO 03003KT 360V070 CAVOK 28/17 Q1017 NOSIG
18:30
V
28 °C 10 km+ - 030°   030° 5 kt METAR LFBL 211630Z AUTO 03005KT CAVOK 28/16 Q1017 NOSIG
18:00
V
29 °C 10 km+ - 040°   040° 5 kt METAR LFBL 211600Z AUTO 04005KT CAVOK 29/16 Q1018 NOSIG
17:30
V
28 °C 10 km+ - Var   Var 3 kt METAR LFBL 211530Z AUTO VRB03KT CAVOK 28/15 Q1018 NOSIG
17:00
V
29 °C 10 km+ - Var   Var 3 kt METAR LFBL 211500Z AUTO VRB03KT CAVOK 29/15 Q1018 NOSIG
16:30
V
29 °C 10 km+ - Var   Var 2 kt METAR LFBL 211430Z AUTO VRB02KT CAVOK 29/17 Q1019 NOSIG
16:00
V
29 °C 10 km+ - Var   Var 3 kt METAR LFBL 211400Z AUTO VRB03KT CAVOK 29/17 Q1019 NOSIG
15:30
V
28 °C 10 km+ - 040°   040° 3 kt METAR LFBL 211330Z AUTO 04003KT 360V110 CAVOK 28/15 Q1019 NOSIG
15:00
V
28 °C 10 km+ - Var   Var 3 kt METAR LFBL 211300Z AUTO VRB03KT CAVOK 28/16 Q1020 NOSIG
14:30
V
27 °C 10 km+ - 080°   080° 3 kt METAR LFBL 211230Z AUTO 08003KT 360V160 CAVOK 27/15 Q1020 NOSIG
14:00
V
27 °C 10 km+ - 090°   090° 4 kt METAR LFBL 211200Z AUTO 09004KT 360V160 CAVOK 27/16 Q1020 NOSIG
13:30
V
26 °C 10 km+ - 160°   160° 3 kt METAR LFBL 211130Z AUTO 16003KT 070V240 CAVOK 26/14 Q1020 NOSIG
13:00
V
26 °C 10 km+ - Var   Var 3 kt METAR LFBL 211100Z AUTO VRB03KT CAVOK 26/15 Q1021 NOSIG
12:30
V
25 °C 10 km+ - Var   Var 3 kt METAR LFBL 211030Z AUTO VRB03KT CAVOK 25/14 Q1021 NOSIG
12:00
V
25 °C 10 km+ - 090°   090° 3 kt METAR LFBL 211000Z AUTO 09003KT 020V100 CAVOK 25/15 Q1021 NOSIG
11:30
V
24 °C 10 km+ - Var   Var 3 kt METAR LFBL 210930Z AUTO VRB03KT CAVOK 24/15 Q1021 NOSIG
11:00
V
23 °C 10 km+ - 160°   160° 3 kt METAR LFBL 210900Z AUTO 16003KT 120V230 CAVOK 23/17 Q1022 NOSIG
10:30
V
22 °C 10 km+ - 120°   120° 4 kt METAR LFBL 210830Z AUTO 12004KT 050V160 CAVOK 22/16 Q1022 NOSIG
10:00
V
21 °C 10 km+ - 070°   070° 4 kt METAR LFBL 210800Z AUTO 07004KT 020V130 CAVOK 21/16 Q1022 NOSIG
09:30
V
20 °C 10 km+ - 100°   100° 5 kt METAR LFBL 210730Z AUTO 10005KT 060V120 CAVOK 20/16 Q1022 NOSIG
09:00
V
19 °C 10 km+ - 060°   060° 6 kt METAR LFBL 210700Z AUTO 06006KT 9999 FEW010 19/16 Q1022 NOSIG
Dati più vecchi

Scarica la nostra applicazione

Facile accesso a tutte le previsioni dell'aviazione sul tuo cellulare e tablet.
Con molte caratteristiche non disponibili sul sito web, come il supporto offline e una lista personale di aeroporti.

Noi e le terze parti seguiamo il tuo comportamento in internet sul nostro sito web con i cookie. Se continui, riteniamo che tu sia d'accordo con la nostra politica sui cookie. Per saperne di più